Terminal Aerodrome Forecast
Issued by NWS

Home | Current Version | Previous Version | Text Only | Print | Product List | Glossary On
Versions: 1 2 3 4 5 6 7 8 9 10 11 12 13 14 15 16 17 18 19 20 21 22 23 24 25 26
921
FTUS42 KCAE 250835 AAA
TAFDNL
TAF AMD
KDNL 250835Z 2509/2606 15003KT P6SM BKN200
     FM251200 18004KT P6SM BKN060
     FM251500 17008KT P6SM SCT025 BKN050
     FM260000 14004KT P6SM SCT050 BKN100=

USA.gov is the U.S. government's official web portal to all federal, state and local government web resources and services.